createdAt,value
2018-08-03T00:01:09.937Z,24.40
2018-08-03T00:06:06.421Z,24.40
2018-08-03T00:08:34.877Z,24.30
2018-08-03T00:11:03.258Z,24.30
2018-08-03T00:13:31.668Z,24.30
2018-08-03T00:16:00.131Z,24.20
2018-08-03T00:18:28.546Z,24.10
2018-08-03T00:20:56.981Z,24.10
2018-08-03T00:25:53.437Z,24.10
2018-08-03T00:30:49.898Z,24.00
2018-08-03T00:33:18.249Z,23.90
2018-08-03T00:35:46.712Z,23.90
2018-08-03T00:38:15.109Z,23.90
2018-08-03T00:40:43.474Z,23.80
2018-08-03T00:43:11.852Z,23.70
2018-08-03T00:45:40.197Z,23.70
2018-08-03T00:48:09.229Z,23.60
2018-08-03T00:50:37.643Z,23.60
2018-08-03T00:53:06.106Z,23.60
2018-08-03T00:55:34.518Z,23.60
2018-08-03T00:58:02.912Z,23.60
2018-08-03T01:00:31.329Z,23.50
2018-08-03T01:02:59.762Z,23.40
2018-08-03T01:05:28.170Z,23.30
2018-08-03T01:07:56.521Z,23.20
2018-08-03T01:10:24.892Z,23.10
2018-08-03T01:12:53.302Z,23.00
2018-08-03T01:15:21.713Z,23.00
2018-08-03T01:17:50.197Z,22.90
2018-08-03T01:20:18.641Z,22.90
2018-08-03T01:22:47.078Z,22.80
2018-08-03T01:25:15.500Z,22.80
2018-08-03T01:27:43.953Z,22.90
2018-08-03T01:30:12.373Z,22.80
2018-08-03T01:32:40.843Z,22.80
2018-08-03T01:35:09.274Z,22.80
2018-08-03T01:37:37.716Z,22.70
2018-08-03T01:40:06.503Z,22.70
2018-08-03T01:42:34.885Z,22.70
2018-08-03T01:45:03.289Z,22.60
2018-08-03T01:47:32.133Z,22.60
2018-08-03T01:50:00.502Z,22.50
2018-08-03T01:54:57.030Z,22.50
2018-08-03T01:57:25.430Z,22.50
2018-08-03T01:59:53.794Z,22.40
2018-08-03T02:02:22.230Z,22.40
2018-08-03T02:04:50.621Z,22.40
2018-08-03T02:07:19.002Z,22.30
2018-08-03T02:09:47.360Z,22.30
2018-08-03T02:12:15.737Z,22.20
2018-08-03T02:14:44.210Z,22.20
2018-08-03T02:17:12.688Z,22.20
2018-08-03T02:19:41.077Z,22.20
2018-08-03T02:22:09.485Z,22.10
2018-08-03T02:24:37.883Z,22.10
2018-08-03T02:27:06.401Z,22.10
2018-08-03T02:29:34.777Z,22.10
2018-08-03T02:32:03.146Z,22.10
2018-08-03T02:34:31.535Z,22.00
2018-08-03T02:36:59.941Z,22.00
2018-08-03T02:39:28.343Z,22.00
2018-08-03T02:41:56.753Z,22.00
2018-08-03T02:44:25.160Z,22.00
2018-08-03T02:46:53.545Z,22.10
2018-08-03T02:49:21.966Z,22.10
2018-08-03T02:51:50.358Z,22.00
2018-08-03T02:54:18.736Z,22.00
2018-08-03T02:56:47.157Z,21.90
2018-08-03T02:59:16.136Z,21.90
2018-08-03T03:01:44.517Z,21.90
2018-08-03T03:04:12.901Z,21.80
2018-08-03T03:06:41.305Z,21.80
2018-08-03T03:09:10.997Z,21.80
2018-08-03T03:11:39.358Z,21.80
2018-08-03T03:14:07.842Z,21.70
2018-08-03T03:16:36.434Z,21.60
2018-08-03T03:19:04.902Z,21.50
2018-08-03T03:21:33.310Z,21.40
2018-08-03T03:24:01.702Z,21.30
2018-08-03T03:26:30.119Z,21.20
2018-08-03T03:28:58.548Z,21.20
2018-08-03T03:31:26.946Z,21.20
2018-08-03T03:33:55.288Z,21.20
2018-08-03T03:36:23.702Z,21.20
2018-08-03T03:38:52.074Z,21.20
2018-08-03T03:41:20.409Z,21.30
2018-08-03T03:43:49.313Z,21.20
2018-08-03T03:46:17.670Z,21.30
2018-08-03T03:48:46.047Z,21.20
2018-08-03T03:51:14.472Z,21.10
2018-08-03T03:53:42.857Z,21.10
2018-08-03T03:56:11.373Z,20.90
2018-08-03T03:58:39.800Z,20.80
2018-08-03T04:01:08.213Z,20.90
2018-08-03T04:03:36.624Z,20.80
2018-08-03T04:06:05.006Z,20.80
2018-08-03T04:08:33.385Z,20.90
2018-08-03T04:11:01.911Z,20.80
2018-08-03T04:13:30.362Z,20.80
2018-08-03T04:15:58.792Z,20.80
2018-08-03T04:18:27.162Z,20.80
2018-08-03T04:20:56.474Z,20.80
2018-08-03T04:23:24.945Z,20.80
2018-08-03T04:25:53.354Z,20.80
2018-08-03T04:28:21.792Z,20.80
2018-08-03T04:30:50.134Z,20.80
2018-08-03T04:33:18.534Z,20.80
2018-08-03T04:38:15.144Z,20.80
2018-08-03T04:40:43.574Z,20.80
2018-08-03T04:43:11.967Z,20.70
2018-08-03T04:45:40.389Z,20.80
2018-08-03T04:48:08.769Z,20.80
2018-08-03T04:50:37.145Z,20.80
2018-08-03T04:53:06.430Z,20.80
2018-08-03T04:55:34.801Z,20.80
2018-08-03T04:58:03.240Z,20.80
2018-08-03T05:00:31.616Z,20.80
2018-08-03T05:07:56.209Z,20.90
2018-08-03T05:10:24.605Z,20.90
2018-08-03T05:12:52.973Z,20.90
2018-08-03T05:15:21.414Z,20.90
2018-08-03T05:17:49.801Z,21.10
2018-08-03T05:20:18.245Z,21.10
2018-08-03T05:22:46.603Z,21.20
2018-08-03T05:25:15.025Z,21.40
2018-08-03T05:27:43.406Z,21.40
2018-08-03T05:30:11.850Z,21.60
2018-08-03T05:32:40.229Z,21.60
2018-08-03T05:35:09.182Z,21.70
2018-08-03T05:37:38.235Z,21.80
2018-08-03T05:40:06.825Z,22.00
2018-08-03T05:42:35.299Z,22.10
2018-08-03T05:45:03.762Z,22.40
2018-08-03T05:47:32.155Z,22.60
2018-08-03T05:50:00.684Z,22.60
2018-08-03T05:52:29.898Z,22.70
2018-08-03T05:54:58.391Z,22.70
2018-08-03T05:57:26.869Z,22.80
2018-08-03T05:59:55.591Z,22.80
2018-08-03T06:02:24.050Z,22.90
2018-08-03T06:04:52.659Z,23.00
2018-08-03T06:07:21.038Z,23.10
2018-08-03T06:09:49.453Z,23.30
2018-08-03T06:12:17.863Z,23.40
2018-08-03T06:14:46.285Z,23.60
2018-08-03T06:17:14.676Z,23.70
2018-08-03T06:19:43.049Z,23.80
2018-08-03T06:22:11.463Z,24.00
2018-08-03T06:24:39.994Z,24.10
2018-08-03T06:27:08.426Z,24.10
2018-08-03T06:29:36.820Z,24.20
2018-08-03T06:32:05.891Z,24.30
2018-08-03T06:34:34.249Z,24.30
2018-08-03T06:37:02.621Z,24.50
2018-08-03T06:39:31.060Z,24.60
2018-08-03T06:41:59.444Z,24.70
2018-08-03T06:44:27.880Z,24.80
2018-08-03T06:46:56.381Z,25.00
2018-08-03T06:49:24.733Z,25.20
2018-08-03T06:51:53.077Z,25.30
2018-08-03T06:54:22.144Z,25.40
2018-08-03T06:56:50.572Z,25.50
2018-08-03T06:59:18.966Z,25.80
2018-08-03T07:01:47.474Z,26.00
2018-08-03T07:04:15.866Z,26.00
2018-08-03T07:09:13.502Z,26.20
2018-08-03T07:11:41.905Z,26.40
2018-08-03T07:14:10.297Z,26.60
2018-08-03T07:16:38.702Z,26.80
2018-08-03T07:21:35.212Z,27.00
2018-08-03T07:24:03.666Z,27.30
2018-08-03T07:26:32.082Z,27.50
2018-08-03T07:29:00.493Z,27.80
2018-08-03T07:31:28.936Z,28.00
2018-08-03T07:33:57.321Z,28.10
2018-08-03T07:36:25.700Z,28.10
2018-08-03T07:38:54.047Z,28.20
2018-08-03T07:41:22.521Z,28.50
2018-08-03T07:43:50.934Z,28.60
2018-08-03T07:46:19.845Z,28.70
2018-08-03T07:48:48.213Z,28.90
2018-08-03T07:51:16.673Z,29.00
2018-08-03T07:53:45.053Z,29.20
2018-08-03T07:56:13.453Z,29.40
2018-08-03T07:58:41.858Z,29.50
2018-08-03T08:01:10.756Z,29.70
2018-08-03T08:06:07.234Z,29.90
2018-08-03T08:11:03.736Z,29.90
2018-08-03T08:13:32.110Z,30.10
2018-08-03T08:16:00.499Z,30.20
2018-08-03T08:18:28.902Z,30.50
2018-08-03T08:20:57.261Z,30.80
2018-08-03T08:23:25.652Z,30.90
2018-08-03T08:25:54.133Z,31.00
2018-08-03T08:28:22.503Z,31.20
2018-08-03T08:30:51.161Z,31.30
2018-08-03T08:33:19.325Z,31.40
2018-08-03T08:35:47.730Z,31.60
2018-08-03T08:38:16.121Z,31.70
2018-08-03T08:40:44.629Z,31.50
2018-08-03T08:43:13.051Z,31.70
2018-08-03T08:45:41.410Z,32.00
2018-08-03T08:48:09.846Z,31.90
2018-08-03T08:50:38.301Z,32.20
2018-08-03T08:53:06.785Z,32.30
2018-08-03T08:55:35.165Z,32.60
2018-08-03T08:58:03.581Z,32.90
2018-08-03T09:00:31.936Z,33.10
2018-08-03T09:03:00.945Z,33.10
2018-08-03T09:05:29.322Z,33.30
2018-08-03T09:07:57.704Z,33.50
2018-08-03T09:10:26.078Z,33.60
2018-08-03T09:12:54.525Z,33.60
2018-08-03T09:15:22.964Z,33.60
2018-08-03T09:17:51.374Z,33.70
2018-08-03T09:20:19.842Z,33.80
2018-08-03T09:22:48.263Z,34.00
2018-08-03T09:25:16.726Z,34.00
2018-08-03T09:27:45.096Z,34.20
2018-08-03T09:30:13.487Z,34.30
2018-08-03T09:32:41.977Z,34.50
2018-08-03T09:35:10.390Z,34.50
2018-08-03T09:37:38.846Z,34.70
2018-08-03T09:40:07.227Z,34.90
2018-08-03T09:42:35.615Z,35.10
2018-08-03T09:45:04.717Z,35.10
2018-08-03T09:47:33.229Z,35.10
2018-08-03T09:50:01.690Z,35.20
2018-08-03T09:52:30.133Z,35.20
2018-08-03T09:54:58.505Z,35.40
2018-08-03T09:57:26.906Z,35.50
2018-08-03T09:59:55.345Z,35.50
2018-08-03T10:02:23.765Z,35.90
2018-08-03T10:04:52.145Z,36.10
2018-08-03T10:07:20.595Z,35.80
2018-08-03T10:09:48.945Z,36.10
2018-08-03T10:12:17.361Z,36.10
2018-08-03T10:17:13.904Z,36.40
2018-08-03T10:19:42.270Z,36.40
2018-08-03T10:22:10.661Z,36.60
2018-08-03T10:24:39.013Z,36.70
2018-08-03T10:27:07.389Z,36.50
2018-08-03T10:29:35.809Z,36.70
2018-08-03T10:32:04.301Z,36.80
2018-08-03T10:34:32.677Z,36.80
2018-08-03T10:37:01.061Z,36.70
2018-08-03T10:39:29.545Z,36.90
2018-08-03T10:41:57.937Z,37.20
2018-08-03T10:44:26.331Z,37.40
2018-08-03T10:49:22.818Z,37.40
2018-08-03T10:51:51.198Z,37.40
2018-08-03T10:54:19.579Z,37.70
2018-08-03T10:56:47.980Z,38.10
2018-08-03T10:59:16.341Z,38.00
2018-08-03T11:01:44.858Z,37.90
2018-08-03T11:04:13.305Z,38.20
2018-08-03T11:06:41.767Z,38.10
2018-08-03T11:11:38.865Z,38.00
2018-08-03T11:14:07.381Z,38.30
2018-08-03T11:16:36.417Z,38.30
2018-08-03T11:19:04.898Z,38.20
2018-08-03T11:21:33.265Z,38.10
2018-08-03T11:24:01.707Z,38.20
2018-08-03T11:26:30.018Z,38.50
2018-08-03T11:31:26.479Z,39.10
2018-08-03T11:33:54.833Z,39.10
2018-08-03T11:36:23.214Z,39.00
2018-08-03T11:38:51.617Z,39.10
2018-08-03T11:41:20.097Z,38.80
2018-08-03T11:43:48.506Z,38.90
2018-08-03T11:46:16.886Z,38.80
2018-08-03T11:48:45.368Z,38.60
2018-08-03T11:51:13.802Z,38.70
2018-08-03T11:53:42.164Z,38.80
2018-08-03T11:56:10.604Z,39.10
2018-08-03T11:58:39.013Z,39.30
2018-08-03T12:01:07.398Z,39.00
2018-08-03T12:03:35.858Z,39.30
2018-08-03T12:06:04.286Z,39.40
2018-08-03T12:08:32.786Z,39.40
2018-08-03T12:13:29.276Z,39.40
2018-08-03T12:15:58.202Z,39.50
2018-08-03T12:18:26.589Z,39.70
2018-08-03T12:20:55.202Z,39.80
2018-08-03T12:23:23.605Z,39.60
2018-08-03T12:25:52.034Z,39.60
2018-08-03T12:28:20.426Z,39.70
2018-08-03T12:30:49.709Z,39.70
2018-08-03T12:33:18.182Z,39.80
2018-08-03T12:35:46.594Z,39.80
2018-08-03T12:38:15.023Z,39.70
2018-08-03T12:40:43.479Z,39.40
2018-08-03T12:43:11.904Z,39.50
2018-08-03T12:45:40.414Z,39.60
2018-08-03T12:48:08.868Z,39.60
2018-08-03T12:50:37.263Z,39.70
2018-08-03T12:53:05.750Z,39.50
2018-08-03T12:55:34.957Z,39.40
2018-08-03T12:58:03.369Z,39.50
2018-08-03T13:00:31.794Z,39.60
2018-08-03T13:03:00.195Z,39.50
2018-08-03T13:05:28.579Z,39.50
2018-08-03T13:07:57.122Z,39.20
2018-08-03T13:10:25.349Z,39.10
2018-08-03T13:12:53.697Z,39.10
2018-08-03T13:15:28.757Z,39.50
2018-08-03T13:17:57.188Z,38.80
2018-08-03T13:20:25.552Z,38.80
2018-08-03T13:23:00.198Z,39.10
2018-08-03T13:25:28.587Z,39.20
2018-08-03T13:27:57.101Z,39.00
2018-08-03T13:30:25.614Z,39.30
2018-08-03T13:32:54.092Z,39.40
2018-08-03T13:35:22.550Z,39.20
2018-08-03T13:37:51.530Z,38.70
2018-08-03T13:40:19.994Z,38.80
2018-08-03T13:42:48.634Z,39.00
2018-08-03T13:45:17.096Z,38.90
2018-08-03T13:47:45.505Z,38.90
2018-08-03T13:50:13.959Z,39.00
2018-08-03T13:52:42.454Z,38.90
2018-08-03T13:55:10.896Z,38.90
2018-08-03T13:57:39.344Z,38.80
2018-08-03T14:00:09.353Z,38.60
2018-08-03T14:02:37.745Z,38.60
2018-08-03T14:05:06.860Z,38.60
2018-08-03T14:07:35.269Z,38.40
2018-08-03T14:10:03.764Z,38.30
2018-08-03T14:12:32.201Z,38.50
2018-08-03T14:15:00.697Z,38.50
2018-08-03T14:17:29.129Z,38.40
2018-08-03T14:19:57.506Z,38.20
2018-08-03T14:22:25.967Z,38.20
2018-08-03T14:24:54.365Z,38.30
2018-08-03T14:27:22.929Z,38.20
2018-08-03T14:29:51.405Z,38.20
2018-08-03T14:32:19.969Z,38.00
2018-08-03T14:34:48.548Z,38.00
2018-08-03T14:37:23.606Z,38.00
2018-08-03T14:39:53.240Z,37.80
2018-08-03T14:42:22.217Z,37.70
2018-08-03T14:44:50.800Z,37.70
2018-08-03T14:47:19.397Z,37.80
2018-08-03T14:49:47.868Z,37.80
2018-08-03T14:52:16.428Z,37.70
2018-08-03T14:54:44.910Z,37.60
2018-08-03T14:57:13.369Z,37.50
2018-08-03T15:02:09.993Z,37.50
2018-08-03T15:04:38.436Z,37.50
2018-08-03T15:07:06.837Z,37.50
2018-08-03T15:09:35.239Z,37.40
2018-08-03T15:12:03.799Z,37.30
2018-08-03T15:14:32.226Z,36.90
2018-08-03T15:17:00.826Z,36.90
2018-08-03T15:19:29.453Z,37.00
2018-08-03T15:21:58.226Z,36.90
2018-08-03T15:24:27.298Z,36.60
2018-08-03T15:26:55.810Z,36.40
2018-08-03T15:29:24.201Z,36.60
2018-08-03T15:31:52.571Z,36.70
2018-08-03T15:34:21.105Z,36.70
2018-08-03T15:36:49.948Z,36.80
2018-08-03T15:39:18.357Z,36.80
2018-08-03T15:41:49.577Z,36.90
2018-08-03T15:44:18.098Z,36.70
2018-08-03T15:46:46.469Z,36.40
2018-08-03T15:49:14.934Z,36.30
2018-08-03T15:51:43.419Z,36.30
2018-08-03T15:54:11.817Z,36.20
2018-08-03T15:56:40.218Z,36.10
2018-08-03T15:59:08.594Z,36.00
2018-08-03T16:01:37.079Z,35.80
2018-08-03T16:04:05.485Z,35.90
2018-08-03T16:06:33.917Z,35.90
2018-08-03T16:09:02.325Z,35.90
2018-08-03T16:11:30.809Z,35.90
2018-08-03T16:13:59.225Z,35.80
2018-08-03T16:16:27.650Z,35.70
2018-08-03T16:18:56.151Z,35.60
2018-08-03T16:21:24.458Z,35.40
2018-08-03T16:23:52.814Z,35.30
2018-08-03T16:28:49.385Z,35.20
2018-08-03T16:31:18.213Z,35.10
2018-08-03T16:33:46.610Z,35.00
2018-08-03T16:36:15.128Z,34.90
2018-08-03T16:38:43.516Z,34.90
2018-08-03T16:41:11.963Z,34.80
2018-08-03T16:43:40.533Z,34.80
2018-08-03T16:46:08.893Z,34.80
2018-08-03T16:48:37.365Z,34.60
2018-08-03T16:51:05.785Z,34.70
2018-08-03T16:53:34.222Z,34.50
2018-08-03T16:56:02.649Z,34.40
2018-08-03T16:58:31.062Z,34.30
2018-08-03T17:00:59.501Z,34.20
2018-08-03T17:03:27.881Z,34.10
2018-08-03T17:05:56.320Z,34.10
2018-08-03T17:08:24.673Z,34.00
2018-08-03T17:10:53.199Z,34.00
2018-08-03T17:13:21.644Z,34.00
2018-08-03T17:15:50.140Z,34.00
2018-08-03T17:18:18.577Z,34.00
2018-08-03T17:20:46.970Z,33.90
2018-08-03T17:23:15.472Z,33.80
2018-08-03T17:25:43.833Z,33.70
2018-08-03T17:28:12.368Z,33.70
2018-08-03T17:30:40.795Z,33.70
2018-08-03T17:33:09.182Z,33.60
2018-08-03T17:35:37.610Z,33.50
2018-08-03T17:38:06.060Z,33.50
2018-08-03T17:40:34.530Z,33.40
2018-08-03T17:43:02.941Z,33.40
2018-08-03T17:45:31.412Z,33.30
2018-08-03T17:47:59.797Z,33.20
2018-08-03T17:50:28.227Z,33.10
2018-08-03T17:52:56.709Z,33.20
2018-08-03T17:55:25.147Z,33.10
2018-08-03T17:57:53.574Z,33.00
2018-08-03T18:00:21.971Z,33.00
2018-08-03T18:02:51.003Z,32.90
2018-08-03T18:05:19.390Z,32.90
2018-08-03T18:07:47.834Z,32.80
2018-08-03T18:10:16.217Z,32.80
2018-08-03T18:12:44.655Z,32.60
2018-08-03T18:15:14.029Z,32.60
2018-08-03T18:17:42.417Z,32.50
2018-08-03T18:20:10.817Z,32.40
2018-08-03T18:22:39.225Z,32.40
2018-08-03T18:25:07.669Z,32.30
2018-08-03T18:27:36.049Z,32.30
2018-08-03T18:30:05.295Z,32.20
2018-08-03T18:32:33.674Z,32.20
2018-08-03T18:35:02.099Z,32.00
2018-08-03T18:37:30.578Z,31.90
2018-08-03T18:39:58.948Z,31.80
2018-08-03T18:42:27.414Z,31.70
2018-08-03T18:44:55.810Z,31.70
2018-08-03T18:47:24.170Z,31.50
2018-08-03T18:49:52.610Z,31.50
2018-08-03T18:52:21.120Z,31.40
2018-08-03T18:54:49.636Z,31.30
2018-08-03T18:57:18.018Z,31.30
2018-08-03T18:59:46.417Z,31.20
2018-08-03T19:02:14.882Z,31.20
2018-08-03T19:04:43.287Z,31.10
2018-08-03T19:07:11.633Z,31.00
2018-08-03T19:09:40.725Z,30.90
2018-08-03T19:12:09.118Z,30.90
2018-08-03T19:14:37.558Z,30.80
2018-08-03T19:17:06.026Z,30.80
2018-08-03T19:19:34.469Z,30.60
2018-08-03T19:22:03.563Z,30.70
2018-08-03T19:24:31.969Z,30.60
2018-08-03T19:27:00.388Z,30.50
2018-08-03T19:29:28.738Z,30.40
2018-08-03T19:31:57.408Z,30.40
2018-08-03T19:34:25.784Z,30.40
2018-08-03T19:39:22.333Z,30.20
2018-08-03T19:41:51.145Z,30.20
2018-08-03T19:44:19.506Z,30.20
2018-08-03T19:46:48.342Z,30.20
2018-08-03T19:49:16.715Z,30.10
2018-08-03T19:51:45.105Z,30.00
2018-08-03T19:54:13.481Z,30.00
2018-08-03T19:56:41.893Z,30.00
2018-08-03T19:59:10.297Z,29.90
2018-08-03T20:01:38.794Z,29.80
2018-08-03T20:04:07.580Z,29.70
2018-08-03T20:06:36.250Z,29.70
2018-08-03T20:09:07.498Z,29.70
2018-08-03T20:11:35.893Z,29.70
2018-08-03T20:14:04.337Z,29.60
2018-08-03T20:16:32.737Z,29.50
2018-08-03T20:19:01.123Z,29.50
2018-08-03T20:21:29.499Z,29.40
2018-08-03T20:23:58.549Z,29.40
2018-08-03T20:26:26.970Z,29.30
2018-08-03T20:28:55.348Z,29.30
2018-08-03T20:31:24.083Z,29.20
2018-08-03T20:33:52.567Z,29.20
2018-08-03T20:36:21.689Z,29.10
2018-08-03T20:38:50.098Z,29.10
2018-08-03T20:41:18.469Z,29.00
2018-08-03T20:43:47.136Z,29.00
2018-08-03T20:48:43.709Z,28.80
2018-08-03T20:51:12.137Z,28.80
2018-08-03T20:53:40.546Z,28.70
2018-08-03T20:56:08.915Z,28.70
2018-08-03T20:58:37.342Z,28.70
2018-08-03T21:01:05.738Z,28.60
2018-08-03T21:03:34.199Z,28.50
2018-08-03T21:06:02.669Z,28.50
2018-08-03T21:08:31.048Z,28.40
2018-08-03T21:10:59.429Z,28.40
2018-08-03T21:13:27.841Z,28.30
2018-08-03T21:15:56.954Z,28.20
2018-08-03T21:18:25.383Z,28.20
2018-08-03T21:20:54.500Z,28.20
2018-08-03T21:23:22.922Z,28.00
2018-08-03T21:25:51.375Z,27.90
2018-08-03T21:28:19.813Z,27.80
2018-08-03T21:30:48.152Z,27.70
2018-08-03T21:33:16.534Z,27.60
2018-08-03T21:35:44.965Z,27.60
2018-08-03T21:38:14.267Z,27.50
2018-08-03T21:40:42.872Z,27.30
2018-08-03T21:43:11.576Z,27.20
2018-08-03T21:45:40.030Z,27.20
2018-08-03T21:48:08.444Z,27.10
2018-08-03T21:50:36.780Z,27.00
2018-08-03T21:53:05.205Z,27.00
2018-08-03T21:55:33.581Z,26.90
2018-08-03T21:58:01.973Z,26.90
2018-08-03T22:02:58.521Z,26.80
2018-08-03T22:05:27.428Z,26.80
2018-08-03T22:10:24.053Z,26.80
2018-08-03T22:12:52.450Z,26.80
2018-08-03T22:15:20.840Z,26.90
2018-08-03T22:17:49.261Z,26.90
2018-08-03T22:20:17.675Z,26.90
2018-08-03T22:22:46.093Z,26.90
2018-08-03T22:27:42.793Z,26.90
2018-08-03T22:30:11.155Z,26.80
2018-08-03T22:32:39.660Z,26.80
2018-08-03T22:37:36.282Z,26.70
2018-08-03T22:40:04.785Z,26.60
2018-08-03T22:42:33.373Z,26.60
2018-08-03T22:45:01.761Z,26.60
2018-08-03T22:47:30.180Z,26.60
2018-08-03T22:49:58.560Z,26.50
2018-08-03T22:52:26.928Z,26.50
2018-08-03T22:54:55.388Z,26.50
2018-08-03T22:57:23.743Z,26.40
2018-08-03T22:59:52.161Z,26.40
2018-08-03T23:02:20.553Z,26.40
2018-08-03T23:04:49.036Z,26.40
2018-08-03T23:07:17.476Z,26.30
2018-08-03T23:09:45.900Z,26.30
2018-08-03T23:12:14.301Z,26.20
2018-08-03T23:14:42.676Z,26.10
2018-08-03T23:17:11.095Z,26.00
2018-08-03T23:19:39.468Z,26.00
2018-08-03T23:22:07.901Z,25.90
2018-08-03T23:24:36.264Z,26.00
2018-08-03T23:27:04.681Z,25.90
2018-08-03T23:29:33.098Z,25.80
2018-08-03T23:32:01.484Z,25.80
2018-08-03T23:34:29.902Z,25.80
2018-08-03T23:36:58.338Z,25.80
2018-08-03T23:39:26.729Z,25.80
2018-08-03T23:41:55.089Z,25.80
2018-08-03T23:44:23.501Z,25.70
2018-08-03T23:46:51.865Z,25.70
2018-08-03T23:49:20.263Z,25.70
2018-08-03T23:51:48.772Z,25.60
2018-08-03T23:54:17.129Z,25.60
2018-08-03T23:56:45.501Z,25.50
2018-08-03T23:59:13.972Z,25.50
